createdAt,value
2023-03-17T00:02:10.196Z,101580.63
2023-03-17T00:04:37.025Z,101569.31
2023-03-17T00:07:05.592Z,101566.72
2023-03-17T00:09:32.310Z,101572.78
2023-03-17T00:11:59.357Z,101571.88
2023-03-17T00:14:26.088Z,101572.78
2023-03-17T00:16:57.066Z,101571.84
2023-03-17T00:19:33.082Z,101569.25
2023-03-17T00:22:01.042Z,101561.44
2023-03-17T00:24:28.600Z,101570.00
2023-03-17T00:26:58.243Z,101562.19
2023-03-17T00:29:25.559Z,101552.69
2023-03-17T00:31:52.956Z,101549.19
2023-03-17T00:34:20.670Z,101537.94
2023-03-17T00:36:52.965Z,101538.78
2023-03-17T00:39:20.084Z,101539.63
2023-03-17T00:41:49.994Z,101537.97
2023-03-17T00:44:20.519Z,101534.47
2023-03-17T00:46:47.500Z,101527.63
2023-03-17T00:49:19.960Z,101510.31
2023-03-17T00:51:47.483Z,101524.97
2023-03-17T00:54:15.588Z,101523.22
2023-03-17T00:56:44.357Z,101512.78
2023-03-17T00:59:39.249Z,101509.34
2023-03-17T01:02:06.284Z,101497.25
2023-03-17T01:04:34.021Z,101488.59
2023-03-17T01:07:00.762Z,101484.31
2023-03-17T01:09:28.364Z,101479.97
2023-03-17T01:11:55.781Z,101488.66
2023-03-17T01:14:25.970Z,101486.09
2023-03-17T01:16:55.901Z,101491.28
2023-03-17T01:19:23.052Z,101492.13
2023-03-17T01:21:49.712Z,101491.25
2023-03-17T01:24:16.490Z,101482.66
2023-03-17T01:26:43.313Z,101478.34
2023-03-17T01:29:10.030Z,101478.28
2023-03-17T01:31:37.418Z,101472.22
2023-03-17T01:34:07.022Z,101478.22
2023-03-17T01:36:41.532Z,101478.22
2023-03-17T01:39:08.177Z,101468.72
2023-03-17T01:41:36.673Z,101473.13
2023-03-17T01:44:04.242Z,101467.00
2023-03-17T01:46:39.429Z,101475.66
2023-03-17T01:49:21.336Z,101464.38
2023-03-17T01:51:51.769Z,101458.34
2023-03-17T01:54:27.226Z,101448.84
2023-03-17T01:56:58.814Z,101455.72
2023-03-17T01:59:36.940Z,101449.75
2023-03-17T02:02:11.125Z,101446.25
2023-03-17T02:04:40.441Z,101431.53
2023-03-17T02:07:07.783Z,101437.59
2023-03-17T02:09:35.434Z,101434.16
2023-03-17T02:12:07.075Z,101431.53
2023-03-17T02:14:34.236Z,101432.38
2023-03-17T02:17:07.063Z,101436.72
2023-03-17T02:19:34.287Z,101424.56
2023-03-17T02:22:01.468Z,101424.50
2023-03-17T02:24:31.023Z,101419.38
2023-03-17T02:27:35.880Z,101419.34
2023-03-17T02:30:07.302Z,101409.81
2023-03-17T02:32:38.644Z,101409.00
2023-03-17T02:35:08.415Z,101407.25
2023-03-17T02:37:35.339Z,101406.38
2023-03-17T02:40:02.778Z,101399.44
2023-03-17T02:42:29.433Z,101399.44
2023-03-17T02:44:56.055Z,101404.63
2023-03-17T02:47:22.653Z,101420.19
2023-03-17T02:49:49.892Z,101407.25
2023-03-17T02:52:17.043Z,101409.81
2023-03-17T02:54:43.738Z,101400.28
2023-03-17T02:57:13.504Z,101405.50
2023-03-17T02:59:40.539Z,101403.75
2023-03-17T03:02:07.331Z,101397.69
2023-03-17T03:04:34.044Z,101405.50
2023-03-17T03:07:00.769Z,101401.16
2023-03-17T03:09:27.692Z,101390.81
2023-03-17T03:11:55.040Z,101393.47
2023-03-17T03:14:22.036Z,101394.31
2023-03-17T03:16:48.704Z,101390.03
2023-03-17T03:19:23.314Z,101396.97
2023-03-17T03:21:49.935Z,101400.44
2023-03-17T03:24:19.342Z,101396.97
2023-03-17T03:26:48.722Z,101401.28
2023-03-17T03:29:15.410Z,101396.97
2023-03-17T03:31:45.538Z,101398.69
2023-03-17T03:34:12.176Z,101406.44
2023-03-17T03:36:44.638Z,101418.53
2023-03-17T03:39:14.223Z,101421.16
2023-03-17T03:41:47.490Z,101414.28
2023-03-17T03:44:14.239Z,101413.41
2023-03-17T03:46:41.038Z,101409.06
2023-03-17T03:49:16.716Z,101396.13
2023-03-17T03:51:43.356Z,101389.22
2023-03-17T03:54:10.220Z,101390.94
2023-03-17T03:56:36.898Z,101391.81
2023-03-17T03:59:07.652Z,101403.91
2023-03-17T04:01:38.892Z,101397.88
2023-03-17T04:04:05.802Z,101399.59
2023-03-17T04:06:32.809Z,101392.69
2023-03-17T04:09:02.349Z,101400.47
2023-03-17T04:11:29.479Z,101403.06
2023-03-17T04:13:56.165Z,101389.16
2023-03-17T04:16:25.519Z,101389.16
2023-03-17T04:18:52.176Z,101383.06
2023-03-17T04:21:19.169Z,101387.41
2023-03-17T04:23:46.642Z,101390.84
2023-03-17T04:26:13.766Z,101379.63
2023-03-17T04:28:43.133Z,101379.63
2023-03-17T04:31:12.474Z,101385.66
2023-03-17T04:33:39.646Z,101376.16
2023-03-17T04:36:07.830Z,101368.34
2023-03-17T04:38:37.745Z,101359.72
2023-03-17T04:41:07.289Z,101371.81
2023-03-17T04:43:33.921Z,101366.63
2023-03-17T04:46:01.001Z,101366.69
2023-03-17T04:48:27.670Z,101357.16
2023-03-17T04:50:54.317Z,101372.69
2023-03-17T04:53:22.502Z,101370.94
2023-03-17T04:55:55.368Z,101370.97
2023-03-17T04:58:30.385Z,101375.28
2023-03-17T05:00:57.767Z,101370.09
2023-03-17T05:03:28.271Z,101377.00
2023-03-17T05:05:58.411Z,101370.00
2023-03-17T05:08:27.370Z,101373.47
2023-03-17T05:10:55.200Z,101375.25
2023-03-17T05:13:22.534Z,101370.09
2023-03-17T05:15:51.848Z,101368.31
2023-03-17T05:18:22.926Z,101366.63
2023-03-17T05:20:50.042Z,101358.84
2023-03-17T05:23:16.767Z,101351.06
2023-03-17T05:25:44.137Z,101333.84
2023-03-17T05:28:10.816Z,101331.28
2023-03-17T05:30:38.009Z,101348.56
2023-03-17T05:33:08.412Z,101344.22
2023-03-17T05:35:38.475Z,101357.16
2023-03-17T05:38:07.744Z,101352.84
2023-03-17T05:40:36.171Z,101349.38
2023-03-17T05:43:04.023Z,101349.41
2023-03-17T05:45:30.836Z,101346.78
2023-03-17T05:47:57.930Z,101355.47
2023-03-17T05:50:25.397Z,101352.94
2023-03-17T05:52:53.415Z,101349.44
2023-03-17T05:55:29.438Z,101356.34
2023-03-17T05:57:59.509Z,101363.28
2023-03-17T06:00:27.107Z,101364.13
2023-03-17T06:02:53.721Z,101367.63
2023-03-17T06:05:20.394Z,101372.78
2023-03-17T06:07:53.349Z,101359.88
2023-03-17T06:10:22.005Z,101372.84
2023-03-17T06:12:48.665Z,101364.22
2023-03-17T06:15:17.693Z,101360.75
2023-03-17T06:17:44.596Z,101356.41
2023-03-17T06:20:11.984Z,101353.00
2023-03-17T06:22:46.270Z,101332.25
2023-03-17T06:25:19.023Z,101347.81
2023-03-17T06:27:45.757Z,101349.56
2023-03-17T06:30:14.026Z,101347.84
2023-03-17T06:32:40.757Z,101357.38
2023-03-17T06:35:07.798Z,101359.94
2023-03-17T06:37:36.276Z,101370.34
2023-03-17T06:40:07.118Z,101366.03
2023-03-17T06:42:33.821Z,101364.31
2023-03-17T06:45:03.784Z,101354.78
2023-03-17T06:47:30.787Z,101360.84
2023-03-17T06:49:57.506Z,101365.19
2023-03-17T06:52:24.277Z,101350.47
2023-03-17T06:54:51.609Z,101343.56
2023-03-17T06:57:18.285Z,101335.78
2023-03-17T06:59:45.912Z,101337.50
2023-03-17T07:02:12.840Z,101339.25
2023-03-17T07:04:39.690Z,101337.53
2023-03-17T07:07:06.406Z,101350.47
2023-03-17T07:09:34.539Z,101346.16
2023-03-17T07:12:06.093Z,101348.75
2023-03-17T07:14:35.665Z,101344.38
2023-03-17T07:17:12.559Z,101346.09
2023-03-17T07:19:40.751Z,101331.38
2023-03-17T07:22:08.269Z,101335.69
2023-03-17T07:24:35.033Z,101327.91
2023-03-17T07:27:01.720Z,101316.59
2023-03-17T07:29:29.405Z,101317.41
2023-03-17T07:31:59.018Z,101307.84
2023-03-17T07:34:26.088Z,101306.97
2023-03-17T07:36:52.720Z,101272.22
2023-03-17T07:39:19.382Z,101266.09
2023-03-17T07:41:53.059Z,101275.34
2023-03-17T07:44:19.937Z,101288.06
2023-03-17T07:46:46.710Z,101271.28
2023-03-17T07:49:13.352Z,101262.28
2023-03-17T07:51:43.242Z,101270.00
2023-03-17T07:54:14.833Z,101277.81
2023-03-17T07:56:42.567Z,101288.25
2023-03-17T07:59:09.266Z,101289.31
2023-03-17T08:01:36.077Z,101296.38
2023-03-17T08:04:04.952Z,101293.78
2023-03-17T08:06:34.329Z,101304.25
2023-03-17T08:09:01.256Z,101294.88
2023-03-17T08:11:29.454Z,101286.91
2023-03-17T08:13:56.306Z,101293.25
2023-03-17T08:16:23.134Z,101288.75
2023-03-17T08:18:49.997Z,101294.69
2023-03-17T08:21:25.583Z,101299.91
2023-03-17T08:23:55.986Z,101285.72
2023-03-17T08:26:27.115Z,101288.41
2023-03-17T08:28:53.947Z,101271.88
2023-03-17T08:31:22.772Z,101276.72
2023-03-17T08:33:54.693Z,101269.03
2023-03-17T08:36:21.765Z,101267.59
2023-03-17T08:38:49.000Z,101270.72
2023-03-17T08:41:20.649Z,101264.66
2023-03-17T08:43:48.287Z,101268.88
2023-03-17T08:46:21.222Z,101282.69
2023-03-17T08:48:49.788Z,101281.69
2023-03-17T08:51:19.067Z,101284.69
2023-03-17T08:53:47.254Z,101269.63
2023-03-17T08:56:14.636Z,101264.56
2023-03-17T08:58:42.728Z,101253.16
2023-03-17T09:01:13.415Z,101247.13
2023-03-17T09:03:42.524Z,101238.44
2023-03-17T09:06:12.530Z,101238.13
2023-03-17T09:08:44.843Z,101237.94
2023-03-17T09:11:20.623Z,101229.84
2023-03-17T09:13:47.898Z,101236.63
2023-03-17T09:16:16.382Z,101237.06
2023-03-17T09:18:44.140Z,101228.97
2023-03-17T09:21:13.386Z,101230.91
2023-03-17T09:23:40.192Z,101223.03
2023-03-17T09:26:13.052Z,101216.13
2023-03-17T09:28:39.960Z,101217.06
2023-03-17T09:31:11.545Z,101225.19
2023-03-17T09:33:42.049Z,101225.13
2023-03-17T09:36:12.956Z,101216.16
2023-03-17T09:38:39.799Z,101210.69
2023-03-17T09:41:19.901Z,101216.50
2023-03-17T09:44:04.963Z,101203.63
2023-03-17T09:47:02.582Z,101201.09
2023-03-17T09:49:42.530Z,101201.63
2023-03-17T09:52:21.746Z,101199.19
2023-03-17T09:54:51.621Z,101203.00
2023-03-17T09:57:27.117Z,101201.56
2023-03-17T10:00:24.366Z,101202.09
2023-03-17T10:02:52.034Z,101201.19
2023-03-17T10:05:19.853Z,101194.69
2023-03-17T10:07:59.838Z,101196.78
2023-03-17T10:10:39.637Z,101192.50
2023-03-17T10:13:18.240Z,101191.84
2023-03-17T10:15:58.890Z,101187.22
2023-03-17T10:18:30.430Z,101188.38
2023-03-17T10:21:03.554Z,101191.69
2023-03-17T10:23:33.571Z,101188.19
2023-03-17T10:26:07.660Z,101193.53
2023-03-17T10:28:39.205Z,101187.84
2023-03-17T10:31:19.645Z,101186.47
2023-03-17T10:33:56.932Z,101188.56
2023-03-17T10:36:51.596Z,101188.09
2023-03-17T10:39:24.712Z,101187.41
2023-03-17T10:42:09.459Z,101181.94
2023-03-17T10:44:45.120Z,101175.63
2023-03-17T10:47:34.428Z,101173.47
2023-03-17T10:50:22.088Z,101172.94
2023-03-17T10:53:13.105Z,101169.97
2023-03-17T10:55:52.914Z,101163.25
2023-03-17T10:58:38.807Z,101147.94
2023-03-17T11:01:16.292Z,101148.31
2023-03-17T11:03:43.114Z,101156.00
2023-03-17T11:06:22.647Z,101150.63
2023-03-17T11:08:53.895Z,101139.50
2023-03-17T11:12:04.545Z,101139.56
2023-03-17T11:14:31.391Z,101134.34
2023-03-17T11:17:01.550Z,101131.50
2023-03-17T11:20:11.570Z,101127.28
2023-03-17T11:22:42.147Z,101126.75
2023-03-17T11:25:16.219Z,101123.38
2023-03-17T11:27:49.380Z,101124.47
2023-03-17T11:30:36.501Z,101126.88
2023-03-17T11:33:24.699Z,101121.66
2023-03-17T11:36:06.729Z,101125.69
2023-03-17T11:38:43.411Z,101129.69
2023-03-17T11:41:36.394Z,101120.50
2023-03-17T11:44:23.590Z,101125.81
2023-03-17T11:47:15.912Z,101116.31
2023-03-17T11:49:46.180Z,101118.00
2023-03-17T11:52:30.077Z,101119.94
2023-03-17T11:55:02.521Z,101118.66
2023-03-17T11:57:53.832Z,101107.25
2023-03-17T12:00:27.625Z,101120.31
2023-03-17T12:03:15.804Z,101108.28
2023-03-17T12:05:45.524Z,101093.75
2023-03-17T12:08:24.959Z,101094.72
2023-03-17T12:10:55.770Z,101099.47
2023-03-17T12:13:40.277Z,101103.13
2023-03-17T12:16:23.103Z,101099.47
2023-03-17T12:19:03.562Z,101099.75
2023-03-17T12:21:47.666Z,101098.16
2023-03-17T12:24:40.017Z,101091.78
2023-03-17T12:27:16.956Z,101086.44
2023-03-17T12:29:52.680Z,101085.81
2023-03-17T12:32:39.545Z,101077.31
2023-03-17T12:35:15.659Z,101080.81
2023-03-17T12:37:46.735Z,101083.72
2023-03-17T12:40:25.210Z,101082.97
2023-03-17T12:43:31.831Z,101074.50
2023-03-17T12:46:23.275Z,101078.53
2023-03-17T12:48:54.986Z,101074.97
2023-03-17T12:51:46.138Z,101067.56
2023-03-17T12:54:22.203Z,101058.16
2023-03-17T12:56:50.518Z,101042.97
2023-03-17T12:59:21.300Z,101047.91
2023-03-17T13:02:29.388Z,101038.47
2023-03-17T13:05:10.401Z,101040.44
2023-03-17T13:07:52.906Z,101033.81
2023-03-17T13:10:29.513Z,101032.78
2023-03-17T13:13:13.133Z,101041.63
2023-03-17T13:15:39.858Z,101037.13
2023-03-17T13:18:18.636Z,101046.78
2023-03-17T13:20:54.384Z,101041.03
2023-03-17T13:23:38.613Z,101036.53
2023-03-17T13:26:08.111Z,101039.81
2023-03-17T13:28:40.057Z,101033.44
2023-03-17T13:31:31.405Z,101036.44
2023-03-17T13:34:16.642Z,101024.75
2023-03-17T13:37:07.271Z,101020.63
2023-03-17T13:39:42.904Z,101021.47
2023-03-17T13:42:28.448Z,101022.22
2023-03-17T13:45:20.805Z,101014.19
2023-03-17T13:47:49.729Z,101020.28
2023-03-17T13:50:33.107Z,101018.97
2023-03-17T13:53:10.465Z,101009.72
2023-03-17T13:55:42.996Z,101018.19
2023-03-17T13:58:11.648Z,101010.78
2023-03-17T14:00:41.778Z,101011.16
2023-03-17T14:03:19.605Z,101013.84
2023-03-17T14:05:52.882Z,101005.22
2023-03-17T14:08:34.726Z,101020.97
2023-03-17T14:11:06.737Z,101011.75
2023-03-17T14:13:49.503Z,101009.78
2023-03-17T14:16:28.116Z,101014.56
2023-03-17T14:19:00.919Z,101020.44
2023-03-17T14:21:36.661Z,101015.56
2023-03-17T14:24:22.115Z,101003.56
2023-03-17T14:27:07.123Z,100990.09
2023-03-17T14:29:39.780Z,100987.47
2023-03-17T14:32:13.545Z,100980.63
2023-03-17T14:34:59.585Z,100978.41
2023-03-17T14:37:27.480Z,100975.25
2023-03-17T14:39:57.672Z,100978.84
2023-03-17T14:42:30.164Z,100979.72
2023-03-17T14:45:05.148Z,100971.34
2023-03-17T14:47:44.607Z,100964.44
2023-03-17T14:50:20.774Z,100957.09
2023-03-17T14:52:50.090Z,100961.81
2023-03-17T14:55:19.821Z,100956.31
2023-03-17T14:57:54.038Z,100943.75
2023-03-17T15:00:34.669Z,100936.41
2023-03-17T15:03:05.794Z,100941.75
2023-03-17T15:05:42.066Z,100937.63
2023-03-17T15:08:46.215Z,100943.03
2023-03-17T15:11:43.317Z,100945.78
2023-03-17T15:14:26.047Z,100938.28
2023-03-17T15:16:55.197Z,100940.75
2023-03-17T15:19:34.761Z,100941.31
2023-03-17T15:22:08.000Z,100941.25
2023-03-17T15:25:01.017Z,100934.47
2023-03-17T15:27:32.126Z,100932.75
2023-03-17T15:29:59.083Z,100922.44
2023-03-17T15:32:30.072Z,100914.84
2023-03-17T15:34:57.214Z,100916.63
2023-03-17T15:37:29.188Z,100918.72
2023-03-17T15:39:57.129Z,100908.31
2023-03-17T15:42:27.543Z,100912.78
2023-03-17T15:44:55.174Z,100917.66
2023-03-17T15:47:25.659Z,100903.72
2023-03-17T15:50:00.254Z,100900.53
2023-03-17T15:52:30.093Z,100904.22
2023-03-17T15:55:01.005Z,100902.31
2023-03-17T15:57:28.143Z,100897.22
2023-03-17T15:59:54.765Z,100899.47
2023-03-17T16:02:35.627Z,100898.63
2023-03-17T16:05:12.160Z,100898.91
2023-03-17T16:07:38.898Z,100894.56
2023-03-17T16:10:16.759Z,100898.97
2023-03-17T16:12:43.501Z,100894.84
2023-03-17T16:15:22.440Z,100909.28
2023-03-17T16:17:52.680Z,100910.47
2023-03-17T16:20:36.159Z,100916.66
2023-03-17T16:23:30.857Z,100909.06
2023-03-17T16:26:08.179Z,100915.34
2023-03-17T16:28:40.858Z,100920.06
2023-03-17T16:31:22.633Z,100910.22
2023-03-17T16:33:50.882Z,100919.34
2023-03-17T16:36:19.492Z,100918.13
2023-03-17T16:38:49.174Z,100917.09
2023-03-17T16:41:34.628Z,100908.28
2023-03-17T16:44:02.704Z,100911.16
2023-03-17T16:46:36.284Z,100912.84
2023-03-17T16:49:04.297Z,100911.94
2023-03-17T16:51:31.023Z,100902.59
2023-03-17T16:53:57.676Z,100903.84
2023-03-17T16:56:27.930Z,100907.28
2023-03-17T16:58:54.944Z,100906.91
2023-03-17T17:01:25.125Z,100910.59
2023-03-17T17:03:52.096Z,100908.28
2023-03-17T17:06:23.645Z,100907.72
2023-03-17T17:08:53.817Z,100910.41
2023-03-17T17:11:24.011Z,100911.38
2023-03-17T17:13:51.811Z,100908.81
2023-03-17T17:16:34.661Z,100904.91
2023-03-17T17:19:03.832Z,100906.22
2023-03-17T17:21:32.070Z,100902.41
2023-03-17T17:24:11.176Z,100902.69
2023-03-17T17:26:38.189Z,100904.63
2023-03-17T17:29:10.295Z,100892.97
2023-03-17T17:31:37.029Z,100895.03
2023-03-17T17:34:10.092Z,100899.63
2023-03-17T17:36:39.951Z,100902.50
2023-03-17T17:39:06.890Z,100900.88
2023-03-17T17:41:34.463Z,100904.78
2023-03-17T17:44:01.199Z,100910.03
2023-03-17T17:46:28.605Z,100909.19
2023-03-17T17:48:56.264Z,100913.78
2023-03-17T17:51:22.883Z,100912.47
2023-03-17T17:53:49.560Z,100908.88
2023-03-17T17:56:17.821Z,100904.34
2023-03-17T17:58:45.156Z,100902.59
2023-03-17T18:01:14.217Z,100896.47
2023-03-17T18:03:43.046Z,100901.69
2023-03-17T18:06:10.340Z,100903.69
2023-03-17T18:08:37.175Z,100899.16
2023-03-17T18:11:03.998Z,100900.22
2023-03-17T18:13:30.658Z,100902.06
2023-03-17T18:16:02.081Z,100906.03
2023-03-17T18:18:28.711Z,100902.91
2023-03-17T18:20:55.809Z,100910.03
2023-03-17T18:23:23.087Z,100909.22
2023-03-17T19:45:36.477Z,100865.06
2023-03-17T19:48:03.588Z,100857.25
2023-03-17T19:50:31.002Z,100864.41
2023-03-17T19:52:57.752Z,100862.69
2023-03-17T19:55:29.648Z,100861.69
2023-03-17T19:57:56.761Z,100865.28
2023-03-17T20:00:24.860Z,100868.69
2023-03-17T20:02:51.719Z,100863.59
2023-03-17T20:05:18.535Z,100870.44
2023-03-17T20:07:46.503Z,100880.41
2023-03-17T20:10:16.175Z,100878.78
2023-03-17T20:12:43.513Z,100877.25
2023-03-17T20:15:16.054Z,100875.69
2023-03-17T20:17:43.407Z,100882.72
2023-03-17T20:20:14.648Z,100889.63
2023-03-17T20:22:43.920Z,100883.63
2023-03-17T20:25:11.021Z,100890.66
2023-03-17T20:27:40.772Z,100884.56
2023-03-17T20:30:09.658Z,100888.44
2023-03-17T20:32:36.338Z,100888.31
2023-03-17T20:35:03.465Z,100880.47
2023-03-17T20:37:30.953Z,100887.53
2023-03-17T20:40:05.616Z,100880.66
2023-03-17T20:42:32.292Z,100880.34
2023-03-17T20:44:59.161Z,100882.16
2023-03-17T20:47:29.727Z,100879.16
2023-03-17T20:49:58.866Z,100878.88
2023-03-17T20:52:29.965Z,100872.16
2023-03-17T20:54:57.078Z,100876.63
2023-03-17T20:57:23.733Z,100874.00
2023-03-17T20:59:52.025Z,100872.09
2023-03-17T21:02:19.242Z,100870.56
2023-03-17T21:04:56.971Z,100871.56
2023-03-17T21:07:23.675Z,100864.72
2023-03-17T21:09:51.647Z,100869.38
2023-03-17T21:12:23.349Z,100874.88
2023-03-17T21:14:50.737Z,100871.72
2023-03-17T21:17:18.170Z,100879.97
2023-03-17T21:19:44.844Z,100885.59
2023-03-17T21:22:12.485Z,100871.88
2023-03-17T21:24:40.025Z,100880.50
2023-03-17T21:27:17.346Z,100876.06
2023-03-17T21:29:51.212Z,100873.63
2023-03-17T21:32:17.895Z,100864.81
2023-03-17T21:34:45.164Z,100869.03
2023-03-17T21:37:12.022Z,100864.00
2023-03-17T21:39:38.752Z,100871.16
2023-03-17T21:42:09.793Z,100866.28
2023-03-17T21:44:36.477Z,100870.97
2023-03-17T21:47:03.159Z,100867.56
2023-03-17T21:49:29.808Z,100866.78
2023-03-17T21:51:57.235Z,100869.75
2023-03-17T21:54:24.536Z,100867.31
2023-03-17T21:56:52.337Z,100868.41
2023-03-17T21:59:21.054Z,100871.91
2023-03-17T22:02:00.654Z,100868.41
2023-03-17T22:04:28.566Z,100866.25
2023-03-17T22:06:56.061Z,100865.25
2023-03-17T22:09:22.702Z,100863.44
2023-03-17T22:11:58.355Z,100860.88
2023-03-17T22:14:25.010Z,100856.63
2023-03-17T22:16:53.333Z,100852.19
2023-03-17T22:19:22.604Z,100855.03
2023-03-17T22:21:49.948Z,100855.06
2023-03-17T22:24:17.391Z,100848.34
2023-03-17T22:26:50.687Z,100858.94
2023-03-17T22:29:18.744Z,100844.94
2023-03-17T22:31:45.749Z,100844.97
2023-03-17T22:34:12.826Z,100852.72
2023-03-17T22:36:39.583Z,100850.31
2023-03-17T22:39:08.948Z,100854.78
2023-03-17T22:41:36.029Z,100852.25
2023-03-17T22:44:03.890Z,100841.88
2023-03-17T22:46:30.778Z,100844.38
2023-03-17T22:49:00.236Z,100839.50
2023-03-17T22:51:27.119Z,100837.78
2023-03-17T22:53:54.545Z,100837.03
2023-03-17T22:56:21.437Z,100847.50
2023-03-17T22:58:48.248Z,100848.47
2023-03-17T23:01:16.714Z,100840.53
2023-03-17T23:03:43.997Z,100851.06
2023-03-17T23:06:17.843Z,100854.59
2023-03-17T23:08:45.939Z,100846.75
2023-03-17T23:11:21.301Z,100844.78
2023-03-17T23:13:49.129Z,100846.34
2023-03-17T23:16:16.665Z,100846.38
2023-03-17T23:18:46.535Z,100844.53
2023-03-17T23:21:22.745Z,100844.59
2023-03-17T23:23:49.802Z,100841.09
2023-03-17T23:26:16.778Z,100837.56
2023-03-17T23:28:46.600Z,100835.03
2023-03-17T23:31:14.631Z,100829.69
2023-03-17T23:33:42.759Z,100829.75
2023-03-17T23:36:09.929Z,100828.09
2023-03-17T23:38:36.759Z,100828.06
2023-03-17T23:41:03.719Z,100821.00
2023-03-17T23:43:30.976Z,100831.66
2023-03-17T23:45:58.658Z,100829.88
2023-03-17T23:48:25.631Z,100826.56
2023-03-17T23:50:53.655Z,100828.97
2023-03-17T23:53:21.869Z,100829.88
2023-03-17T23:55:49.425Z,100828.97
2023-03-17T23:58:15.987Z,100829.81
